createdAt,value
2018-12-04T00:00:04.467Z,51.57
2018-12-04T00:02:37.891Z,51.40
2018-12-04T00:05:10.281Z,50.13
2018-12-04T00:07:41.063Z,49.60
2018-12-04T00:13:01.199Z,53.37
2018-12-04T00:15:34.515Z,67.77
2018-12-04T00:18:05.487Z,60.33
2018-12-04T00:20:36.536Z,60.83
2018-12-04T00:23:09.339Z,63.97
2018-12-04T00:25:40.333Z,67.70
2018-12-04T00:28:13.029Z,70.20
2018-12-04T00:30:47.255Z,69.57
2018-12-04T00:33:21.331Z,69.20
2018-12-04T00:35:54.936Z,76.10
2018-12-04T00:38:27.298Z,73.53
2018-12-04T00:40:58.849Z,70.77
2018-12-04T00:43:32.137Z,76.27
2018-12-04T00:46:05.450Z,75.27
2018-12-04T00:48:36.594Z,75.93
2018-12-04T00:51:10.651Z,70.80
2018-12-04T00:53:44.106Z,65.57
2018-12-04T00:56:16.453Z,62.40
2018-12-04T00:58:48.210Z,64.77
2018-12-04T01:01:22.325Z,59.80
2018-12-04T01:03:54.629Z,57.30
2018-12-04T01:06:25.530Z,54.70
2018-12-04T01:09:01.443Z,55.90
2018-12-04T01:11:34.815Z,55.77
2018-12-04T01:14:06.257Z,55.40
2018-12-04T01:16:37.023Z,58.10
2018-12-04T01:19:08.595Z,57.77
2018-12-04T01:21:39.292Z,54.77
2018-12-04T01:24:11.616Z,52.73
2018-12-04T01:26:44.391Z,53.93
2018-12-04T01:29:17.683Z,55.50
2018-12-04T01:31:50.947Z,54.23
2018-12-04T01:34:21.978Z,54.07
2018-12-04T01:36:55.693Z,53.43
2018-12-04T01:39:28.027Z,54.37
2018-12-04T01:41:59.329Z,50.57
2018-12-04T01:44:29.902Z,49.03
2018-12-04T01:47:05.471Z,48.80
2018-12-04T01:49:37.838Z,40.10
2018-12-04T01:52:09.908Z,41.70
2018-12-04T01:54:40.676Z,39.40
2018-12-04T01:57:13.660Z,33.47
2018-12-04T01:59:45.197Z,31.37
2018-12-04T02:02:17.704Z,29.90
2018-12-04T02:04:48.535Z,28.97
2018-12-04T02:07:19.235Z,19.93
2018-12-04T02:09:49.552Z,30.23
2018-12-04T02:12:21.043Z,29.20
2018-12-04T02:14:53.928Z,30.20
2018-12-04T02:17:24.734Z,31.07
2018-12-04T02:19:58.032Z,25.10
2018-12-04T02:22:28.866Z,29.90
2018-12-04T02:25:06.216Z,30.00
2018-12-04T02:27:37.811Z,31.67
2018-12-04T02:30:09.922Z,32.30
2018-12-04T02:32:40.474Z,31.70
2018-12-04T02:35:11.077Z,33.10
2018-12-04T02:37:42.103Z,7.60
2018-12-04T02:40:12.604Z,3.20
2018-12-04T02:42:50.309Z,0.40
2018-12-04T02:45:37.021Z,0.60
2018-12-04T02:48:09.005Z,0.30
2018-12-04T02:50:41.678Z,0.30
2018-12-04T02:53:13.013Z,0.30
2018-12-04T02:55:46.635Z,0.30
2018-12-04T02:58:18.361Z,0.40
2018-12-04T03:00:51.882Z,0.30
2018-12-04T03:03:24.857Z,0.40
2018-12-04T03:05:56.098Z,0.30
2018-12-04T03:08:28.500Z,0.40
2018-12-04T03:11:00.113Z,0.30
2018-12-04T03:13:37.046Z,0.30
2018-12-04T03:16:07.570Z,0.27
2018-12-04T03:18:38.105Z,0.30
2018-12-04T03:21:08.852Z,0.30
2018-12-04T03:23:39.362Z,0.30
2018-12-04T03:26:09.966Z,0.30
2018-12-04T03:28:41.092Z,0.30
2018-12-04T03:31:14.557Z,0.30
2018-12-04T03:33:47.115Z,0.40
2018-12-04T03:36:18.445Z,0.40
2018-12-04T03:38:49.206Z,0.30
2018-12-04T03:41:20.271Z,0.30
2018-12-04T03:43:54.366Z,0.40
2018-12-04T03:46:27.211Z,0.30
2018-12-04T03:48:58.305Z,0.30
2018-12-04T03:51:28.996Z,0.30
2018-12-04T03:54:02.281Z,0.40
2018-12-04T03:56:33.270Z,0.20
2018-12-04T03:59:04.524Z,0.30
2018-12-04T04:01:37.067Z,0.40
2018-12-04T04:04:10.255Z,0.30
2018-12-04T04:06:42.922Z,0.40
2018-12-04T04:09:14.368Z,0.30
2018-12-04T04:11:45.208Z,0.50
2018-12-04T04:14:19.111Z,0.30
2018-12-04T04:16:55.087Z,0.30
2018-12-04T04:19:28.454Z,0.30
2018-12-04T04:21:59.852Z,0.30
2018-12-04T04:24:31.255Z,0.30
2018-12-04T04:27:03.354Z,0.40
2018-12-04T04:29:34.917Z,0.30
2018-12-04T04:32:10.345Z,0.30
2018-12-04T04:34:41.210Z,0.30
2018-12-04T04:37:14.350Z,0.40
2018-12-04T04:39:45.449Z,0.40
2018-12-04T04:42:19.209Z,0.30
2018-12-04T04:44:52.537Z,0.40
2018-12-04T04:47:24.315Z,0.30
2018-12-04T04:49:56.499Z,0.40
2018-12-04T04:52:28.398Z,0.37
2018-12-04T04:55:01.703Z,0.37
2018-12-04T04:57:35.246Z,0.30
2018-12-04T05:00:08.921Z,0.30
2018-12-04T05:02:40.070Z,0.90
2018-12-04T05:05:13.530Z,0.40
2018-12-04T05:07:56.365Z,0.40
2018-12-04T05:10:27.554Z,0.77
2018-12-04T05:13:00.988Z,0.40
2018-12-04T05:15:34.287Z,0.30
2018-12-04T05:18:08.101Z,0.40
2018-12-04T05:20:38.666Z,0.50
2018-12-04T05:23:09.064Z,0.30
2018-12-04T05:25:39.987Z,0.50
2018-12-04T05:28:13.545Z,0.50
2018-12-04T05:30:47.814Z,0.60
2018-12-04T05:33:20.662Z,0.90
2018-12-04T05:35:54.112Z,0.50
2018-12-04T05:38:25.007Z,0.50
2018-12-04T05:41:08.406Z,0.43
2018-12-04T05:43:40.727Z,0.70
2018-12-04T05:46:12.805Z,0.40
2018-12-04T05:48:44.777Z,0.40
2018-12-04T05:51:16.318Z,0.50
2018-12-04T05:53:46.866Z,0.60
2018-12-04T05:56:19.234Z,0.60
2018-12-04T05:58:51.287Z,0.50
2018-12-04T06:01:28.496Z,0.53
2018-12-04T06:04:02.390Z,0.43
2018-12-04T06:06:35.186Z,0.50
2018-12-04T06:09:08.075Z,0.60
2018-12-04T06:11:39.815Z,0.40
2018-12-04T06:14:12.789Z,0.30
2018-12-04T06:16:46.134Z,0.40
2018-12-04T06:19:17.823Z,0.40
2018-12-04T06:21:49.587Z,0.70
2018-12-04T06:24:21.842Z,0.40
2018-12-04T06:26:53.257Z,0.33
2018-12-04T06:29:25.947Z,0.40
2018-12-04T06:31:57.375Z,0.50
2018-12-04T06:34:28.526Z,0.40
2018-12-04T06:37:03.971Z,0.40
2018-12-04T06:39:35.239Z,0.77
2018-12-04T06:42:08.875Z,0.50
2018-12-04T06:44:46.704Z,0.40
2018-12-04T06:47:15.591Z,0.80
2018-12-04T06:49:46.169Z,0.40
2018-12-04T06:52:16.726Z,0.70
2018-12-04T06:54:47.331Z,0.50
2018-12-04T06:57:18.090Z,0.60
2018-12-04T06:59:48.605Z,0.60
2018-12-04T07:02:19.378Z,0.70
2018-12-04T07:04:50.166Z,0.60
2018-12-04T07:07:22.979Z,0.40
2018-12-04T07:09:53.761Z,0.40
2018-12-04T07:12:25.309Z,0.60
2018-12-04T07:14:56.959Z,0.50
2018-12-04T07:17:32.242Z,0.63
2018-12-04T07:20:03.309Z,0.73
2018-12-04T07:22:38.573Z,0.67
2018-12-04T07:25:11.556Z,0.77
2018-12-04T07:27:43.813Z,0.53
2018-12-04T07:30:16.028Z,0.60
2018-12-04T07:32:49.558Z,1.90
2018-12-04T07:35:27.851Z,0.40
2018-12-04T07:38:02.000Z,4.17
2018-12-04T07:40:38.170Z,1.00
2018-12-04T07:43:09.508Z,0.53
2018-12-04T07:45:44.421Z,0.50
2018-12-04T07:48:16.668Z,1.20
2018-12-04T07:50:49.113Z,0.50
2018-12-04T07:53:22.710Z,0.63
2018-12-04T07:55:54.401Z,0.80
2018-12-04T07:58:25.286Z,0.60
2018-12-04T08:00:56.441Z,0.50
2018-12-04T08:03:29.153Z,0.70
2018-12-04T08:06:02.690Z,1.00
2018-12-04T08:08:35.405Z,1.07
2018-12-04T08:11:07.598Z,0.80
2018-12-04T08:13:38.659Z,0.77
2018-12-04T08:16:09.288Z,0.50
2018-12-04T08:18:39.815Z,0.67
2018-12-04T08:21:10.650Z,0.40
2018-12-04T08:23:41.479Z,0.70
2018-12-04T08:26:12.507Z,0.60
2018-12-04T08:28:43.463Z,0.83
2018-12-04T08:31:14.409Z,0.63
2018-12-04T08:33:46.407Z,0.70
2018-12-04T08:36:18.462Z,0.77
2018-12-04T08:38:51.621Z,0.60
2018-12-04T08:41:22.153Z,0.70
2018-12-04T08:43:56.590Z,0.63
2018-12-04T08:46:28.520Z,0.40
2018-12-04T08:49:01.007Z,0.70
2018-12-04T08:51:32.538Z,0.70
2018-12-04T08:54:05.448Z,0.40
2018-12-04T08:56:38.574Z,0.70
2018-12-04T08:59:11.505Z,0.53
2018-12-04T09:01:42.959Z,0.50
2018-12-04T09:04:15.968Z,0.57
2018-12-04T09:06:49.649Z,0.70
2018-12-04T09:09:21.734Z,0.50
2018-12-04T09:11:53.563Z,0.60
2018-12-04T09:14:25.216Z,0.70
2018-12-04T09:16:55.960Z,0.80
2018-12-04T09:19:27.244Z,0.50
2018-12-04T09:21:59.732Z,0.50
2018-12-04T09:24:35.690Z,0.87
2018-12-04T09:27:08.004Z,0.70
2018-12-04T09:29:40.586Z,0.70
2018-12-04T09:32:11.856Z,0.70
2018-12-04T09:34:44.712Z,0.50
2018-12-04T09:37:17.285Z,0.50
2018-12-04T09:39:47.809Z,1.23
2018-12-04T09:42:25.040Z,0.70
2018-12-04T09:44:58.091Z,0.70
2018-12-04T09:47:28.873Z,2.60
2018-12-04T09:50:02.019Z,1.60
2018-12-04T09:52:35.771Z,0.70
2018-12-04T09:55:07.202Z,3.70
2018-12-04T09:57:39.604Z,1.10
2018-12-04T10:00:27.800Z,1.30
2018-12-04T10:03:00.257Z,1.10
2018-12-04T10:05:37.893Z,0.90
2018-12-04T10:08:12.876Z,0.60
2018-12-04T10:10:43.495Z,0.50
2018-12-04T10:13:14.054Z,0.73
2018-12-04T10:15:46.970Z,0.97
2018-12-04T10:18:25.331Z,0.87
2018-12-04T10:21:01.287Z,0.70
2018-12-04T10:23:32.130Z,0.60
2018-12-04T10:26:05.034Z,0.60
2018-12-04T10:28:39.100Z,0.90
2018-12-04T10:31:12.102Z,0.83
2018-12-04T10:33:43.401Z,1.23
2018-12-04T10:36:20.085Z,0.50
2018-12-04T10:38:53.023Z,1.10
2018-12-04T10:41:25.410Z,0.87
2018-12-04T10:43:58.155Z,0.60
2018-12-04T10:46:29.336Z,0.60
2018-12-04T10:49:01.999Z,0.70
2018-12-04T10:51:32.702Z,1.00
2018-12-04T10:54:04.385Z,0.50
2018-12-04T10:56:35.172Z,0.60
2018-12-04T10:59:08.317Z,0.80
2018-12-04T11:01:50.320Z,0.70
2018-12-04T11:04:21.139Z,0.60
2018-12-04T11:06:54.335Z,0.50
2018-12-04T11:09:24.771Z,0.50
2018-12-04T11:11:56.343Z,0.50
2018-12-04T11:14:27.006Z,0.70
2018-12-04T11:17:00.279Z,0.90
2018-12-04T11:19:32.432Z,0.90
2018-12-04T11:22:05.255Z,0.70
2018-12-04T11:24:38.505Z,0.70
2018-12-04T11:27:10.139Z,0.90
2018-12-04T11:29:43.041Z,1.10
2018-12-04T11:32:16.243Z,0.53
2018-12-04T11:34:47.899Z,0.70
2018-12-04T11:37:18.467Z,0.60
2018-12-04T11:39:48.817Z,0.90
2018-12-04T11:42:22.403Z,1.07
2018-12-04T11:44:53.727Z,0.60
2018-12-04T11:47:27.159Z,0.77
2018-12-04T11:49:58.230Z,0.80
2018-12-04T11:52:29.318Z,1.00
2018-12-04T11:55:00.395Z,1.20
2018-12-04T11:57:35.276Z,1.13
2018-12-04T12:03:03.576Z,0.60
2018-12-04T12:05:36.460Z,1.17
2018-12-04T12:08:08.409Z,1.20
2018-12-04T12:10:52.934Z,0.83
2018-12-04T12:13:24.391Z,0.90
2018-12-04T12:15:56.012Z,1.07
2018-12-04T12:18:28.793Z,1.00
2018-12-04T12:20:59.317Z,0.77
2018-12-04T12:23:30.681Z,0.90
2018-12-04T12:26:01.307Z,0.80
2018-12-04T12:28:31.867Z,0.97
2018-12-04T12:31:17.127Z,1.00
2018-12-04T12:33:48.534Z,1.17
2018-12-04T12:36:19.861Z,0.90
2018-12-04T12:38:52.692Z,0.77
2018-12-04T12:41:23.612Z,0.97
2018-12-04T12:46:28.601Z,0.80
2018-12-04T12:49:01.616Z,0.97
2018-12-04T12:51:32.431Z,0.60
2018-12-04T12:54:04.163Z,0.90
2018-12-04T12:56:39.451Z,0.80
2018-12-04T12:59:10.645Z,1.10
2018-12-04T13:01:50.244Z,1.07
2018-12-04T13:04:23.016Z,0.77
2018-12-04T13:06:55.088Z,0.80
2018-12-04T13:09:28.979Z,0.80
2018-12-04T13:12:05.588Z,0.90
2018-12-04T13:14:39.639Z,1.27
2018-12-04T13:17:12.762Z,1.00
2018-12-04T13:19:46.232Z,1.00
2018-12-04T13:22:28.269Z,1.20
2018-12-04T13:31:24.912Z,1.20
2018-12-04T13:35:03.475Z,1.00
2018-12-04T13:37:36.376Z,1.17
2018-12-04T13:40:10.715Z,0.80
2018-12-04T13:45:55.554Z,0.80
2018-12-04T13:48:26.190Z,1.30
2018-12-04T13:50:57.340Z,1.70
2018-12-04T13:53:28.670Z,1.40
2018-12-04T13:55:59.633Z,1.30
2018-12-04T13:58:31.266Z,1.47
2018-12-04T14:01:02.878Z,0.70
2018-12-04T14:03:34.151Z,0.93
2018-12-04T14:06:06.379Z,1.20
2018-12-04T14:08:37.981Z,1.10
2018-12-04T14:11:11.264Z,1.10
2018-12-04T14:13:43.783Z,1.60
2018-12-04T14:16:14.935Z,1.57
2018-12-04T14:18:47.675Z,1.83
2018-12-04T14:21:25.604Z,1.83
2018-12-04T14:23:58.006Z,1.30
2018-12-04T14:26:28.979Z,1.27
2018-12-04T14:28:59.789Z,1.70
2018-12-04T14:31:32.953Z,2.23
2018-12-04T14:34:04.149Z,1.50
2018-12-04T14:36:36.442Z,1.30
2018-12-04T14:39:09.909Z,1.67
2018-12-04T14:41:41.399Z,3.17
2018-12-04T14:44:12.084Z,14.60
2018-12-04T14:46:43.570Z,7.87
2018-12-04T14:49:16.097Z,2.03
2018-12-04T14:51:47.051Z,1.80
2018-12-04T14:54:19.239Z,3.37
2018-12-04T14:56:51.920Z,2.63
2018-12-04T14:59:25.932Z,3.77
2018-12-04T15:01:58.696Z,5.90
2018-12-04T15:04:29.054Z,5.10
2018-12-04T15:07:00.055Z,1.17
2018-12-04T15:09:30.928Z,1.97
2018-12-04T15:12:02.903Z,1.73
2018-12-04T15:14:40.029Z,2.27
2018-12-04T15:17:12.165Z,1.43
2018-12-04T15:19:45.316Z,2.77
2018-12-04T15:22:16.171Z,2.37
2018-12-04T15:24:50.071Z,1.90
2018-12-04T15:27:23.153Z,2.00
2018-12-04T15:29:58.476Z,2.30
2018-12-04T15:32:29.379Z,2.37
2018-12-04T15:35:01.196Z,3.60
2018-12-04T15:37:32.414Z,3.50
2018-12-04T15:40:05.057Z,4.40
2018-12-04T15:42:37.602Z,4.50
2018-12-04T15:45:08.943Z,2.97
2018-12-04T15:47:39.534Z,2.40
2018-12-04T15:50:10.602Z,2.90
2018-12-04T15:52:43.054Z,2.80
2018-12-04T15:55:15.070Z,2.90
2018-12-04T15:57:57.250Z,2.40
2018-12-04T16:00:37.367Z,2.63
2018-12-04T16:03:09.332Z,2.93
2018-12-04T16:05:41.512Z,3.73
2018-12-04T16:08:14.430Z,3.20
2018-12-04T16:10:45.957Z,2.87
2018-12-04T16:13:18.441Z,2.83
2018-12-04T16:15:50.904Z,3.50
2018-12-04T16:18:22.445Z,2.83
2018-12-04T16:20:53.516Z,2.30
2018-12-04T16:23:24.552Z,3.20
2018-12-04T16:25:55.656Z,7.43
2018-12-04T16:28:28.760Z,2.57
2018-12-04T16:30:59.430Z,3.43
2018-12-04T16:33:30.427Z,2.60
2018-12-04T16:36:01.575Z,4.30
2018-12-04T16:38:32.732Z,4.37
2018-12-04T16:41:06.193Z,3.03
2018-12-04T16:43:42.286Z,3.90
2018-12-04T16:46:15.677Z,3.77
2018-12-04T16:48:48.907Z,3.60
2018-12-04T16:51:19.543Z,3.50
2018-12-04T16:53:50.721Z,4.10
2018-12-04T16:56:23.657Z,2.90
2018-12-04T16:58:55.682Z,3.50
2018-12-04T17:01:28.267Z,3.10
2018-12-04T17:03:58.890Z,2.77
2018-12-04T17:06:30.329Z,3.10
2018-12-04T17:09:08.658Z,2.27
2018-12-04T17:11:39.650Z,3.23
2018-12-04T17:14:11.022Z,2.80
2018-12-04T17:16:45.074Z,2.50
2018-12-04T17:19:18.904Z,2.97
2018-12-04T17:21:51.780Z,2.73
2018-12-04T17:24:22.711Z,3.50
2018-12-04T17:26:55.702Z,3.50
2018-12-04T17:29:26.811Z,3.17
2018-12-04T17:31:57.722Z,2.93
2018-12-04T17:34:28.820Z,3.00
2018-12-04T17:36:59.355Z,3.20
2018-12-04T17:39:30.127Z,3.27
2018-12-04T17:42:01.452Z,3.53
2018-12-04T17:44:40.017Z,2.70
2018-12-04T17:47:07.809Z,3.20
2018-12-04T17:49:38.992Z,3.50
2018-12-04T17:52:11.867Z,4.40
2018-12-04T17:54:42.436Z,3.40
2018-12-04T17:57:13.664Z,3.53
2018-12-04T17:59:46.900Z,3.93
2018-12-04T18:02:20.287Z,4.30
2018-12-04T18:04:51.421Z,3.83
2018-12-04T18:07:23.873Z,3.50
2018-12-04T18:09:54.946Z,3.50
2018-12-04T18:12:25.967Z,4.70
2018-12-04T18:14:59.614Z,9.60
2018-12-04T18:17:34.128Z,2.90
2018-12-04T18:20:05.738Z,3.40
2018-12-04T18:22:39.860Z,2.97
2018-12-04T18:25:11.443Z,3.70
2018-12-04T18:27:42.064Z,2.47
2018-12-04T18:30:13.388Z,2.17
2018-12-04T18:32:47.754Z,2.10
2018-12-04T18:35:35.368Z,2.43
2018-12-04T18:38:06.242Z,2.13
2018-12-04T18:40:39.233Z,2.10
2018-12-04T18:43:15.686Z,2.30
2018-12-04T18:45:47.195Z,1.70
2018-12-04T18:48:18.061Z,1.60
2018-12-04T18:50:49.238Z,1.80
2018-12-04T18:53:22.913Z,1.70
2018-12-04T18:55:55.941Z,1.70
2018-12-04T18:58:29.326Z,1.60
2018-12-04T19:01:09.944Z,1.83
2018-12-04T19:03:42.254Z,2.60
2018-12-04T19:06:15.223Z,1.43
2018-12-04T19:08:48.198Z,1.93
2018-12-04T19:11:20.454Z,1.53
2018-12-04T19:13:53.855Z,1.90
2018-12-04T19:16:26.714Z,1.50
2018-12-04T19:19:01.120Z,1.80
2018-12-04T19:21:33.697Z,1.87
2018-12-04T19:24:05.785Z,1.70
2018-12-04T19:26:37.351Z,1.37
2018-12-04T19:29:09.720Z,1.60
2018-12-04T19:31:40.591Z,2.23
2018-12-04T19:34:17.221Z,2.00
2018-12-04T19:36:50.098Z,1.90
2018-12-04T19:39:21.898Z,2.50
2018-12-04T19:42:00.862Z,2.00
2018-12-04T19:44:35.230Z,2.00
2018-12-04T19:47:07.447Z,2.40
2018-12-04T19:49:40.189Z,2.20
2018-12-04T19:52:13.037Z,1.70
2018-12-04T19:54:46.671Z,1.77
2018-12-04T19:57:19.856Z,1.83
2018-12-04T19:59:51.251Z,2.20
2018-12-04T20:02:24.478Z,3.90
2018-12-04T20:04:57.636Z,2.63
2018-12-04T20:07:29.541Z,4.60
2018-12-04T20:10:03.533Z,2.20
2018-12-04T20:12:35.647Z,1.83
2018-12-04T20:15:07.158Z,1.93
2018-12-04T20:18:05.820Z,2.10
2018-12-04T20:20:37.729Z,1.60
2018-12-04T20:23:11.647Z,1.67
2018-12-04T20:25:49.605Z,1.50
2018-12-04T20:28:25.156Z,1.83
2018-12-04T20:30:57.627Z,1.90
2018-12-04T20:33:29.824Z,1.80
2018-12-04T20:36:01.418Z,2.70
2018-12-04T20:38:32.966Z,1.90
2018-12-04T20:41:05.210Z,1.90
2018-12-04T20:43:38.815Z,1.67
2018-12-04T20:46:12.590Z,2.67
2018-12-04T20:48:46.776Z,1.40
2018-12-04T20:51:18.157Z,2.40
2018-12-04T20:53:49.714Z,2.40
2018-12-04T20:56:20.651Z,2.37
2018-12-04T20:58:53.659Z,1.63
2018-12-04T21:01:25.060Z,1.90
2018-12-04T21:03:55.780Z,2.33
2018-12-04T21:06:27.027Z,2.83
2018-12-04T21:09:00.363Z,4.43
2018-12-04T21:11:32.804Z,2.10
2018-12-04T21:14:09.560Z,2.03
2018-12-04T21:16:40.950Z,2.20
2018-12-04T21:19:16.816Z,1.80
2018-12-04T21:21:49.586Z,2.30
2018-12-04T21:24:26.729Z,2.20
2018-12-04T21:26:57.809Z,2.20
2018-12-04T21:29:34.052Z,2.20
2018-12-04T21:32:10.327Z,4.93
2018-12-04T21:34:48.439Z,3.80
2018-12-04T21:37:26.364Z,2.33
2018-12-04T21:40:04.452Z,2.30
2018-12-04T21:42:42.911Z,2.60
2018-12-04T21:48:07.519Z,2.30
2018-12-04T21:50:40.228Z,2.20
2018-12-04T21:53:11.867Z,2.20
2018-12-04T21:55:49.918Z,2.43
2018-12-04T21:58:22.056Z,2.63
2018-12-04T22:00:55.601Z,2.37
2018-12-04T22:03:28.209Z,1.77
2018-12-04T22:06:01.750Z,2.50
2018-12-04T22:08:33.209Z,2.27
2018-12-04T22:11:05.328Z,3.00
2018-12-04T22:13:39.852Z,2.47
2018-12-04T22:16:12.270Z,2.00
2018-12-04T22:18:46.194Z,2.40
2018-12-04T22:21:17.078Z,1.70
2018-12-04T22:23:49.528Z,2.57
2018-12-04T22:26:20.443Z,2.10
2018-12-04T22:28:54.191Z,2.17
2018-12-04T22:31:27.298Z,1.70
2018-12-04T22:34:00.245Z,1.70
2018-12-04T22:36:33.128Z,2.20
2018-12-04T22:39:08.004Z,2.20
2018-12-04T22:41:39.873Z,2.10
2018-12-04T22:44:11.981Z,2.23
2018-12-04T22:46:42.582Z,2.33
2018-12-04T22:49:16.025Z,1.80
2018-12-04T22:51:49.218Z,1.47
2018-12-04T22:54:20.402Z,2.17
2018-12-04T22:56:53.169Z,2.57
2018-12-04T22:59:24.343Z,2.47
2018-12-04T23:01:58.607Z,2.17
2018-12-04T23:04:29.773Z,3.00
2018-12-04T23:07:02.185Z,1.97
2018-12-04T23:09:32.759Z,2.33
2018-12-04T23:12:04.622Z,1.77
2018-12-04T23:14:37.399Z,2.20
2018-12-04T23:17:10.395Z,1.80
2018-12-04T23:19:41.370Z,1.87
2018-12-04T23:22:12.784Z,2.03
2018-12-04T23:24:44.220Z,2.77
2018-12-04T23:27:16.733Z,2.10
2018-12-04T23:29:47.385Z,3.57
2018-12-04T23:32:18.466Z,2.60
2018-12-04T23:34:51.838Z,1.93
2018-12-04T23:37:22.468Z,1.67
2018-12-04T23:39:55.314Z,2.37
2018-12-04T23:42:26.423Z,2.07
2018-12-04T23:44:57.704Z,2.30
2018-12-04T23:47:29.715Z,2.13
2018-12-04T23:50:00.398Z,2.20
2018-12-04T23:52:33.527Z,2.30
2018-12-04T23:55:05.104Z,2.20
2018-12-04T23:57:36.504Z,2.77
